This is the latest recevied weather packets stored in our database for station/object KB1LTW-13. If no packets are shown the sender has not sent any weather packets the latest 10 day(s).
| Time | Temp. | Humidity | Pressure | Rain* | Wind** | Luminosity | Snow |
|---|---|---|---|---|---|---|---|
| 1777486278 | 17.78° C | 49% | 1015.5 hPa | 0 mm | - | 370 W/m² | - |
| 1777483877 | 17.78° C | 48% | 1016.3 hPa | 0 mm | - | 480 W/m² | - |
| 1777476079 | 15° C | 53% | 1017 hPa | 0 mm | - | 738 W/m² | - |
| 1777474885 | 14.44° C | 55% | 1017.1 hPa | 0 mm | - | 713 W/m² | - |
| 1777470677 | 12.22° C | 57% | 1018 hPa | 0 mm | - | 549 W/m² | - |
| 1777467690 | 10.56° C | 62% | 1018.4 hPa | 0 mm | - | 149 W/m² | - |
| 1777466481 | 10° C | 65% | 1018.5 hPa | 0 mm | - | 179 W/m² | - |
| 1777465275 | 10° C | 64% | 1018.7 hPa | 0 mm | - | 151 W/m² | - |
| 1777461684 | 7.22° C | 72% | 1019.6 hPa | 0 mm | - | 41 W/m² | - |
| 1777451484 | 6.67° C | 69% | 1018.9 hPa | 0 mm | - | 0 W/m² | - |
| 1777450875 | 6.67° C | 67% | 1019 hPa | 0 mm | - | 0 W/m² | - |
| 1777445507 | 8.89° C | 72% | 1019.8 hPa | 0 mm | - | 0 W/m² | - |
| 1777441887 | 9.44° C | 68% | 1020.8 hPa | 0 mm | - | 0 W/m² | - |
| 1777435276 | 10.56° C | 64% | 1021 hPa | 0 mm | - | 0 W/m² | - |
| 1777428084 | 12.22° C | 58% | 1021 hPa | 0 mm | - | 0 W/m² | - |
| 1777426282 | 12.78° C | 54% | 1020.8 hPa | 0 mm | - | 0 W/m² | - |
| 1777425683 | 12.78° C | 53% | 1020.7 hPa | 0 mm | - | 0 W/m² | - |
| 1777423285 | 13.89° C | 51% | 1020.1 hPa | 0 mm | - | 0 W/m² | - |
| 1777417885 | 16.67° C | 41% | 1019.9 hPa | 0 mm | - | 9 W/m² | - |
| 1777415485 | 17.78° C | 39% | 1019.8 hPa | 0 mm | - | 43 W/m² | - |
| 1777413682 | 18.33° C | 39% | 1020 hPa | 0 mm | - | 65 W/m² | - |
| 1777409479 | 19.44° C | 36% | 1020.3 hPa | 0 mm | - | 136 W/m² | - |
| 1777405287 | 20.56° C | 33% | 1021.2 hPa | 0 mm | - | 239 W/m² | - |
| 1777402880 | 19.44° C | 36% | 1021.5 hPa | 0 mm | - | 293 W/m² | - |
| 1777401078 | 20.56° C | 35% | 1022.1 hPa | 0 mm | - | 432 W/m² | - |
* Rain latest hour (hover to see other rain measurements)
** Current wind speed in m/s (hover to see current wind gust speed)